GENERAL EDWARD LAWRENCE LOGAN INTL

KBOS (BOS)
Boston, Massachusetts
Towered

Vatsim Metar:
KBOS 111154Z 28010KT 1/2SM R04R/4000V6000FT SN BKN004 OVC008 00/M03 A3021 RMK AO2 PRESRR SLP229 P0006 60015 70031 T00001028 10050 20000 53021

No ATC Online

Traffic

Inbound:
Ident
Type
Name
ETA
Phase
SWA420
B738/L
Dominic Orsini
12:20 Z
Climb
SWA1023
B738/L
Chris Greene KBWI
12:47 Z
Cruse
DAL2437
A319/L
Brandi Wilson KJAX
Boarding
WOH1049
H/A333/G
Florian den Hollander LSZB
16:30 Z
Cruse
EIN13T
H/A333/L
Steve 1119453 EGKB
16:48 Z
Cruse

Outbound:
Ident
Type
Name
Destination
Phase
DLH425
H/A333/L
Jan Doehring EDSA
EDDM
Climb